Time;durP1;ratioP1;P1;durP2;ratioP2;P2;SDS_P1;SDS_P2;PMS_P1;PMS_P2;Temp;Humidity;BMP_temperature;BMP_pressure;BME280_temperature;BME280_humidity;BME280_pressure;Samples;Min_cycle;Max_cycle;Signal;HPM_P1;HPM_P2
2022/12/31 00:00:56;;;;;;;0.20;0.20;;;;;;;12.16;100.00;100187.69;5026445;28;20080;-73
2022/12/31 00:03:22;;;;;;;2.28;0.50;;;;;;;12.13;100.00;100188.06;5041253;28;20521;-73
2022/12/31 00:05:48;;;;;;;0.65;0.30;;;;;;;12.16;100.00;100185.06;5045160;28;20041;-73
2022/12/31 00:08:13;;;;;;;1.88;0.40;;;;;;;12.03;100.00;100185.72;5043767;28;20098;-73
2022/12/31 00:10:40;;;;;;;3.10;0.90;;;;;;;12.01;100.00;100192.09;5025210;28;20066;-73
2022/12/31 00:13:12;;;;;;;1.50;0.40;;;;;;;11.91;100.00;100191.56;5042787;28;20079;-73
2022/12/31 00:15:39;;;;;;;6.97;0.52;;;;;;;11.91;100.00;100186.38;5045542;28;20071;-73
2022/12/31 00:18:05;;;;;;;0.50;0.40;;;;;;;11.91;100.00;100192.34;5046703;28;20032;-73
2022/12/31 00:20:30;;;;;;;3.78;0.85;;;;;;;11.86;100.00;100199.84;5041758;28;20068;-73
2022/12/31 00:22:56;;;;;;;0.85;0.47;;;;;;;12.01;100.00;100192.09;5044937;28;20029;-73
2022/12/31 00:25:21;;;;;;;1.40;0.45;;;;;;;12.04;100.00;100184.75;5029259;28;20055;-73
2022/12/31 00:27:47;;;;;;;1.48;0.50;;;;;;;12.08;100.00;100185.97;5047172;28;20048;-72
2022/12/31 00:30:13;;;;;;;1.73;0.57;;;;;;;12.05;100.00;100188.13;5043963;28;20086;-73
2022/12/31 00:32:39;;;;;;;1.02;0.50;;;;;;;12.07;100.00;100187.00;5044369;28;20033;-73
2022/12/31 00:35:05;;;;;;;1.23;0.32;;;;;;;12.08;100.00;100180.78;5044887;28;20487;-73
2022/12/31 00:37:30;;;;;;;0.95;0.43;;;;;;;12.10;100.00;100180.59;5044093;28;20086;-74
2022/12/31 00:39:56;;;;;;;0.40;0.40;;;;;;;12.15;100.00;100175.69;5043085;28;20415;-73
2022/12/31 00:42:21;;;;;;;2.17;0.45;;;;;;;12.15;100.00;100157.50;5045501;28;20069;-73
2022/12/31 00:44:47;;;;;;;0.82;0.40;;;;;;;12.15;100.00;100154.88;5030549;28;20029;-73
2022/12/31 00:47:12;;;;;;;1.00;0.32;;;;;;;12.22;100.00;100145.38;5038899;28;20040;-73
2022/12/31 00:49:38;;;;;;;2.70;0.32;;;;;;;12.22;100.00;100145.38;5041843;28;20029;-73
2022/12/31 00:52:04;;;;;;;1.10;0.40;;;;;;;12.30;100.00;100139.28;5045516;28;20108;-73
2022/12/31 00:54:29;;;;;;;1.10;0.43;;;;;;;12.36;100.00;100122.13;5043737;28;20033;-73
2022/12/31 00:56:55;;;;;;;2.05;0.50;;;;;;;12.51;100.00;100125.50;5041133;28;20091;-72
2022/12/31 00:59:20;;;;;;;1.77;0.82;;;;;;;12.69;100.00;100119.03;5027331;28;20025;-72
2022/12/31 01:01:46;;;;;;;0.60;0.20;;;;;;;12.63;100.00;100116.19;5031213;28;20062;-73
2022/12/31 01:04:16;;;;;;;0.63;0.25;;;;;;;12.75;100.00;100097.47;5045331;28;20415;-73
2022/12/31 01:06:43;;;;;;;3.33;0.90;;;;;;;12.73;100.00;100122.88;5041667;28;20294;-73
2022/12/31 01:09:10;;;;;;;0.30;0.20;;;;;;;12.91;100.00;100112.03;5043126;28;20029;-73
2022/12/31 01:11:35;;;;;;;0.20;0.20;;;;;;;12.94;100.00;100107.28;5059976;28;20060;-73
2022/12/31 01:14:04;;;;;;;1.73;0.17;;;;;;;12.92;100.00;100105.81;5023034;28;20033;-73
2022/12/31 01:16:37;;;;;;;1.85;0.10;;;;;;;13.07;100.00;100110.94;5043010;28;20068;-73
2022/12/31 01:19:06;;;;;;;0.98;0.30;;;;;;;13.07;100.00;100093.53;5046496;28;20036;-72
2022/12/31 01:21:33;;;;;;;0.20;0.20;;;;;;;13.12;100.00;100117.19;5044516;28;20144;-73
2022/12/31 01:23:59;;;;;;;0.25;0.10;;;;;;;13.14;100.00;100115.22;5044696;28;20036;-73
2022/12/31 01:26:24;;;;;;;0.10;0.10;;;;;;;13.22;100.00;100102.06;5026621;28;20033;-73
2022/12/31 01:28:50;;;;;;;1.05;0.20;;;;;;;13.26;100.00;100073.88;5029734;28;20079;-73
2022/12/31 01:31:18;;;;;;;2.55;0.17;;;;;;;13.35;100.00;100092.75;5027058;28;20041;-73
2022/12/31 01:33:44;;;;;;;0.57;0.10;;;;;;;13.34;100.00;100098.97;5042821;28;20032;-73
2022/12/31 01:36:16;;;;;;;0.25;0.20;;;;;;;13.41;100.00;100082.38;5042986;28;20033;-73
2022/12/31 01:38:42;;;;;;;0.10;0.10;;;;;;;13.46;100.00;100091.41;5044939;28;20119;-73
2022/12/31 01:41:17;;;;;;;0.65;0.20;;;;;;;13.59;100.00;100102.69;5045007;28;20507;-72
2022/12/31 01:43:50;;;;;;;0.85;0.10;;;;;;;13.58;100.00;100095.06;5051383;28;20040;-73
2022/12/31 01:46:45;;;;;;;1.02;0.20;;;;;;;13.61;100.00;100092.09;5059643;28;20127;-73
2022/12/31 01:49:30;;;;;;;3.00;0.20;;;;;;;13.55;100.00;100101.47;5047277;28;20031;-73
2022/12/31 01:52:06;;;;;;;0.20;0.10;;;;;;;13.55;100.00;100091.06;5058461;28;20123;-72
2022/12/31 01:54:37;;;;;;;0.10;0.10;;;;;;;13.56;100.00;100102.28;5043121;28;20237;-73
2022/12/31 01:57:04;;;;;;;0.10;0.10;;;;;;;13.61;100.00;100097.31;5046355;28;20037;-72
2022/12/31 01:59:30;;;;;;;0.82;0.10;;;;;;;13.57;100.00;100088.28;5048072;28;20037;-73
2022/12/31 02:01:58;;;;;;;0.03;0.03;;;;;;;13.58;100.00;100105.50;5048803;28;20029;-73
2022/12/31 02:04:25;;;;;;;0.10;0.10;;;;;;;13.67;100.00;100100.94;5046293;28;20033;-74
2022/12/31 02:07:02;;;;;;;0.10;0.10;;;;;;;13.66;100.00;100094.94;5047350;28;20021;-73
2022/12/31 02:09:30;;;;;;;0.73;0.20;;;;;;;13.81;100.00;100092.19;5050045;28;20025;-72
2022/12/31 02:11:55;;;;;;;0.00;0.00;;;;;;;13.89;100.00;100086.81;5048907;28;20438;-73
2022/12/31 02:14:25;;;;;;;0.10;0.03;;;;;;;13.85;100.00;100088.19;5046816;28;20048;-73
2022/12/31 02:17:21;;;;;;;3.60;0.20;;;;;;;13.78;100.00;100082.94;5029574;28;20048;-73
2022/12/31 02:20:05;;;;;;;0.10;0.10;;;;;;;13.80;100.00;100090.59;5058750;28;20056;-72
2022/12/31 02:23:04;;;;;;;1.13;0.20;;;;;;;13.91;100.00;100086.63;5063548;28;20455;-73
2022/12/31 02:25:30;;;;;;;0.25;0.25;;;;;;;13.89;100.00;100086.00;5025153;22;20144;-74
2022/12/31 02:28:14;;;;;;;0.15;0.15;;;;;;;13.99;100.00;100089.03;5009652;28;20116;-78
2022/12/31 02:30:41;;;;;;;0.10;0.10;;;;;;;13.93;100.00;100095.03;5003313;28;20087;-77
2022/12/31 02:33:30;;;;;;;2.90;0.17;;;;;;;13.99;100.00;100095.09;5024225;28;20029;-77
2022/12/31 02:36:01;;;;;;;0.75;0.15;;;;;;;13.98;100.00;100084.84;5035958;28;20034;-75
2022/12/31 02:38:31;;;;;;;0.10;0.10;;;;;;;14.02;100.00;100112.91;5027049;28;20044;-77
2022/12/31 02:40:57;;;;;;;0.85;0.17;;;;;;;14.08;100.00;100098.31;5022615;28;20042;-77
2022/12/31 02:43:24;;;;;;;2.08;0.20;;;;;;;14.09;100.00;100102.53;5009341;28;20032;-76
2022/12/31 02:45:58;;;;;;;0.20;0.10;;;;;;;14.16;100.00;100099.94;5021322;28;20084;-77
2022/12/31 02:48:44;;;;;;;1.35;0.25;;;;;;;14.06;100.00;100107.31;5023043;28;20072;-76
2022/12/31 02:51:30;;;;;;;2.85;0.25;;;;;;;14.18;100.00;100113.56;5010017;28;20425;-77
2022/12/31 02:54:30;;;;;;;6.03;1.23;;;;;;;14.12;100.00;100127.38;5011286;28;20048;-76
2022/12/31 02:57:14;;;;;;;0.20;0.05;;;;;;;14.19;100.00;100113.38;5007150;28;20125;-77
2022/12/31 03:02:39;;;;;;;3.03;0.22;;;;;;;14.18;100.00;100137.84;5007889;28;20053;-76
2022/12/31 03:05:07;;;;;;;1.92;0.40;;;;;;;14.12;100.00;100127.38;5026368;28;20106;-77
2022/12/31 03:07:32;;;;;;;2.35;0.30;;;;;;;14.23;100.00;100115.59;5019335;28;20622;-77
2022/12/31 03:09:59;;;;;;;0.90;0.20;;;;;;;14.23;100.00;100123.44;5009407;28;20034;-77
2022/12/31 03:12:47;;;;;;;1.85;0.30;;;;;;;14.28;100.00;100115.78;5028716;28;20069;-77
2022/12/31 03:15:31;;;;;;;2.00;0.50;;;;;;;14.32;100.00;100114.44;5025997;28;20033;-76
2022/12/31 03:18:14;;;;;;;0.43;0.15;;;;;;;14.26;100.00;100094.31;5033594;28;20376;-77
2022/12/31 03:23:38;;;;;;;;;;;;;;;14.31;100.00;100118.81;5027876;28;20657;-77
2022/12/31 03:26:10;;;;;;;1.40;0.28;;;;;;;14.32;100.00;100117.03;5036801;28;20520;-76
2022/12/31 03:28:37;;;;;;;1.33;0.20;;;;;;;14.24;100.00;100110.19;5029669;28;20029;-77
2022/12/31 03:31:04;;;;;;;1.20;0.30;;;;;;;14.24;100.00;100115.41;4992993;28;20562;-75
2022/12/31 03:33:39;;;;;;;1.30;0.20;;;;;;;14.24;100.00;100118.03;5010759;28;20041;-78
2022/12/31 03:36:11;;;;;;;0.43;0.15;;;;;;;14.20;100.00;100141.06;4996086;28;20042;-77
2022/12/31 03:38:36;;;;;;;1.90;0.30;;;;;;;14.30;100.00;100130.25;5013572;28;20033;-77
2022/12/31 03:41:02;;;;;;;4.13;0.20;;;;;;;14.28;100.00;100126.22;5010899;28;20092;-78
2022/12/31 03:43:28;;;;;;;1.30;0.20;;;;;;;14.19;100.00;100134.22;5009994;28;20025;-75
2022/12/31 03:45:54;;;;;;;1.05;0.32;;;;;;;14.25;100.00;100137.06;5026237;28;20030;-75
2022/12/31 03:48:22;;;;;;;0.57;0.25;;;;;;;14.21;100.00;100124.41;5025318;28;20034;-77
2022/12/31 03:50:48;;;;;;;2.15;0.28;;;;;;;14.17;100.00;100133.63;5033641;28;20045;-76
2022/12/31 03:53:14;;;;;;;1.40;0.30;;;;;;;14.12;100.00;100125.59;5011096;28;20112;-78
2022/12/31 03:55:40;;;;;;;0.47;0.25;;;;;;;14.12;100.00;100135.22;5026412;28;20033;-77
2022/12/31 03:58:05;;;;;;;0.80;0.30;;;;;;;14.04;100.00;100138.78;5012422;28;20585;-76
2022/12/31 04:00:31;;;;;;;1.83;0.30;;;;;;;13.98;100.00;100131.75;5010139;28;20068;-78
2022/12/31 04:02:57;;;;;;;2.95;0.35;;;;;;;13.99;100.00;100128.97;5011121;28;20030;-77
2022/12/31 04:05:22;;;;;;;0.82;0.30;;;;;;;13.99;100.00;100139.41;4996953;28;20041;-77
2022/12/31 04:07:48;;;;;;;0.43;0.20;;;;;;;13.95;100.00;100124.31;4997471;28;20029;-78
2022/12/31 04:10:16;;;;;;;1.40;0.10;;;;;;;13.85;100.00;100105.66;5016362;28;20503;-78
2022/12/31 04:12:42;;;;;;;2.50;0.25;;;;;;;13.87;100.00;100134.91;5040717;28;20045;-77
2022/12/31 04:15:09;;;;;;;3.28;1.08;;;;;;;13.90;100.00;100122.31;5035154;28;20893;-76
2022/12/31 04:17:35;;;;;;;2.10;0.20;;;;;;;13.95;100.00;100130.31;5024876;28;20036;-75
2022/12/31 04:20:01;;;;;;;0.40;0.15;;;;;;;14.01;100.00;100119.16;5005508;28;20034;-76
2022/12/31 04:22:27;;;;;;;0.98;0.22;;;;;;;14.01;100.00;100098.28;5022844;28;20447;-78
2022/12/31 04:24:52;;;;;;;1.52;0.20;;;;;;;14.17;100.00;100120.59;4989623;28;20045;-76
2022/12/31 04:27:18;;;;;;;2.00;0.95;;;;;;;14.25;100.00;100117.00;5026576;28;20041;-76
2022/12/31 04:29:43;;;;;;;1.13;0.20;;;;;;;14.20;100.00;100129.81;5010840;28;20038;-77
2022/12/31 04:32:09;;;;;;;2.05;0.30;;;;;;;14.23;100.00;100129.44;5039946;28;20041;-76
2022/12/31 04:34:35;;;;;;;2.40;0.30;;;;;;;14.28;100.00;100121.00;5022848;28;20125;-77
2022/12/31 04:37:01;;;;;;;3.35;0.40;;;;;;;14.28;100.00;100132.25;5026725;28;20029;-76
2022/12/31 04:39:26;;;;;;;1.00;0.52;;;;;;;14.34;100.00;100115.03;5005545;28;20033;-76
2022/12/31 04:41:52;;;;;;;3.10;0.43;;;;;;;14.40;100.00;100117.63;5011425;28;20033;-76
2022/12/31 04:44:18;;;;;;;1.23;0.22;;;;;;;14.40;100.00;100124.66;5012036;28;20123;-76
2022/12/31 04:46:43;;;;;;;3.15;0.40;;;;;;;14.28;100.00;100127.06;5022517;28;20155;-78
2022/12/31 04:49:09;;;;;;;2.22;0.60;;;;;;;14.37;100.00;100131.09;4997613;28;20038;-76
2022/12/31 04:51:35;;;;;;;1.00;0.30;;;;;;;14.43;99.53;100116.47;5029145;28;20045;-76
2022/12/31 04:54:01;;;;;;;0.28;0.20;;;;;;;14.50;98.85;100139.94;5028150;28;20037;-76
2022/12/31 04:56:27;;;;;;;2.83;0.43;;;;;;;14.46;99.04;100125.69;4985041;28;20042;-75
2022/12/31 04:58:52;;;;;;;2.40;0.30;;;;;;;14.51;98.80;100121.47;5012652;28;20018;-77
2022/12/31 05:01:18;;;;;;;0.90;0.30;;;;;;;14.53;98.79;100134.34;5012281;28;20043;-77
2022/12/31 05:03:45;;;;;;;1.02;0.40;;;;;;;14.53;98.30;100111.66;5026447;28;20064;-77
2022/12/31 05:06:15;;;;;;;2.45;0.30;;;;;;;14.60;97.80;100128.16;5036408;28;20045;-76
2022/12/31 05:08:41;;;;;;;1.42;0.20;;;;;;;14.60;97.60;100120.31;5018040;28;20564;-77
2022/12/31 05:11:06;;;;;;;1.42;0.30;;;;;;;14.56;97.71;100128.69;5046796;28;20037;-77
2022/12/31 05:13:32;;;;;;;0.17;0.13;;;;;;;14.51;98.45;100133.72;5031421;28;20168;-77
2022/12/31 05:15:58;;;;;;;1.58;0.40;;;;;;;14.51;98.16;100123.28;5018219;28;20048;-77
2022/12/31 05:18:23;;;;;;;1.77;0.43;;;;;;;14.62;97.47;100127.13;5037200;28;20052;-76
2022/12/31 05:20:49;;;;;;;0.52;0.20;;;;;;;14.67;97.23;100127.34;5025112;28;20052;-77
2022/12/31 05:23:16;;;;;;;2.35;0.35;;;;;;;14.78;96.47;100119.72;5011400;28;20173;-78
2022/12/31 05:25:43;;;;;;;2.88;0.52;;;;;;;14.79;96.34;100134.38;5035840;28;20045;-77
2022/12/31 05:28:09;;;;;;;6.82;0.40;;;;;;;14.75;96.01;100156.69;5042883;28;20447;-77
2022/12/31 05:30:34;;;;;;;3.33;0.93;;;;;;;14.73;96.48;100152.63;5013361;28;20041;-77
2022/12/31 05:33:00;;;;;;;0.95;0.30;;;;;;;14.70;96.61;100163.50;5012270;28;20136;-76
2022/12/31 05:35:26;;;;;;;4.03;0.50;;;;;;;14.72;96.38;100144.00;5018878;28;20045;-77
2022/12/31 05:37:51;;;;;;;2.92;0.30;;;;;;;14.78;96.17;100165.91;5011959;28;20033;-77
2022/12/31 05:40:17;;;;;;;1.25;0.28;;;;;;;14.89;95.55;100134.00;5026820;28;20509;-76
2022/12/31 05:42:43;;;;;;;3.67;0.40;;;;;;;14.88;95.08;100161.13;5014234;28;20045;-77
2022/12/31 05:45:12;;;;;;;1.60;0.55;;;;;;;14.82;95.68;100151.44;5027944;28;20057;-77
2022/12/31 05:47:39;;;;;;;1.88;0.50;;;;;;;14.82;96.06;100153.25;5025951;28;20117;-75
2022/12/31 05:50:06;;;;;;;1.75;0.40;;;;;;;14.85;96.38;100165.94;5026905;28;20047;-76
2022/12/31 05:52:32;;;;;;;1.42;0.47;;;;;;;14.88;96.19;100147.22;5012234;28;20026;-76
2022/12/31 05:54:57;;;;;;;4.70;0.30;;;;;;;14.75;96.45;100168.94;4993318;28;20049;-77
2022/12/31 05:57:23;;;;;;;2.83;0.40;;;;;;;14.79;96.80;100164.91;5022784;28;20034;-77
2022/12/31 05:59:48;;;;;;;1.23;0.28;;;;;;;14.80;96.39;100171.72;4996451;28;20037;-77
2022/12/31 06:02:14;;;;;;;2.17;0.50;;;;;;;14.81;96.13;100181.16;5010912;28;20029;-76
2022/12/31 06:04:39;;;;;;;4.85;0.30;;;;;;;14.79;95.99;100191.00;5035076;28;20047;-77
2022/12/31 06:07:05;;;;;;;3.08;0.80;;;;;;;14.78;96.35;100182.34;5040462;28;20022;-77
2022/12/31 06:09:30;;;;;;;2.80;0.40;;;;;;;14.85;95.64;100190.22;5010826;28;20037;-75
2022/12/31 06:11:56;;;;;;;3.70;0.40;;;;;;;14.79;96.00;100180.56;5010956;28;20048;-76
2022/12/31 06:14:21;;;;;;;1.15;0.38;;;;;;;14.85;95.82;100173.75;5011731;28;20038;-76
2022/12/31 06:16:47;;;;;;;2.72;0.75;;;;;;;14.97;94.86;100200.84;4991404;28;20381;-78
2022/12/31 06:19:12;;;;;;;4.78;0.70;;;;;;;15.07;93.83;100193.44;5005851;28;20063;-76
2022/12/31 06:21:38;;;;;;;1.50;0.60;;;;;;;15.01;94.01;100211.72;5031691;28;20046;-76
2022/12/31 06:24:03;;;;;;;2.40;0.40;;;;;;;14.91;94.28;100188.63;5027023;28;20041;-77
2022/12/31 06:26:29;;;;;;;2.10;0.40;;;;;;;14.93;93.94;100199.66;5022014;28;20030;-77
2022/12/31 06:28:54;;;;;;;1.40;0.40;;;;;;;15.06;93.26;100215.31;5023779;28;20735;-77
2022/12/31 06:31:20;;;;;;;1.75;0.32;;;;;;;15.02;93.31;100215.94;5012598;28;20056;-76
2022/12/31 06:33:45;;;;;;;3.40;0.47;;;;;;;15.05;93.17;100192.84;5024896;28;20084;-77
2022/12/31 06:36:13;;;;;;;3.17;0.63;;;;;;;15.05;93.25;100205.09;5041282;28;20052;-77
2022/12/31 06:38:40;;;;;;;1.27;0.47;;;;;;;15.05;93.57;100216.34;5045212;28;20029;-77
2022/12/31 06:41:07;;;;;;;1.40;0.20;;;;;;;15.07;93.48;100209.13;5024755;28;20041;-77
2022/12/31 06:43:33;;;;;;;2.03;0.65;;;;;;;15.07;93.51;100221.34;5013525;28;20038;-78
2022/12/31 06:46:04;;;;;;;3.17;0.40;;;;;;;15.07;93.51;100224.78;5009714;28;20508;-77
2022/12/31 06:48:29;;;;;;;1.55;0.40;;;;;;;15.13;93.51;100228.41;4991345;28;20068;-76
2022/12/31 06:50:55;;;;;;;2.78;0.50;;;;;;;14.99;94.05;100223.16;5010925;28;20068;-77
2022/12/31 06:53:20;;;;;;;4.57;0.50;;;;;;;14.96;93.99;100228.78;5016732;28;20506;-77
2022/12/31 06:55:49;;;;;;;1.95;0.50;;;;;;;14.95;94.17;100237.59;5003312;28;20052;-77
2022/12/31 06:58:15;;;;;;;1.35;0.32;;;;;;;15.02;94.51;100244.66;5010799;28;20025;-77
2022/12/31 07:01:07;;;;;;;2.50;0.55;;;;;;;14.95;94.45;100255.88;5040968;28;20499;-77
2022/12/31 07:03:59;;;;;;;5.47;0.65;;;;;;;15.01;93.95;100243.03;5007434;28;20079;-76
2022/12/31 07:06:33;;;;;;;6.30;0.52;;;;;;;14.97;94.43;100243.44;5008477;28;20053;-76
2022/12/31 07:09:19;;;;;;;4.05;0.30;;;;;;;14.97;94.40;100230.41;5010399;28;20053;-76
2022/12/31 07:12:08;;;;;;;2.83;0.50;;;;;;;14.97;94.66;100234.78;5009073;28;20401;-76
2022/12/31 07:14:36;;;;;;;5.32;0.47;;;;;;;14.97;94.76;100240.84;5022611;28;20029;-77
2022/12/31 07:17:23;;;;;;;3.38;0.40;;;;;;;14.98;94.92;100239.81;5036008;28;20069;-77
2022/12/31 07:19:55;;;;;;;3.72;0.50;;;;;;;14.90;95.15;100241.81;5027514;28;20132;-78
2022/12/31 07:22:21;;;;;;;1.23;0.50;;;;;;;14.85;95.82;100244.22;5008988;28;20038;-78
2022/12/31 07:24:46;;;;;;;4.03;1.23;;;;;;;14.85;95.98;100252.06;5034195;28;20541;-79
2022/12/31 07:27:40;;;;;;;6.35;0.85;;;;;;;14.90;95.53;100276.56;4993728;28;20407;-77
2022/12/31 07:30:16;;;;;;;4.10;0.98;;;;;;;14.91;95.33;100253.88;5022230;28;20124;-76
2022/12/31 07:33:00;;;;;;;3.03;0.80;;;;;;;14.94;94.63;100269.16;5008261;28;20037;-77
2022/12/31 07:35:37;;;;;;;2.45;0.40;;;;;;;14.92;94.42;100258.91;5010096;28;20183;-77
2022/12/31 07:38:03;;;;;;;29.38;11.23;;;;;;;14.92;94.50;100230.19;5043993;28;20106;-77
2022/12/31 07:40:55;;;;;;;5.00;0.88;;;;;;;15.09;92.77;100261.94;5040614;28;20116;-78
2022/12/31 07:43:42;;;;;;;1.60;0.50;;;;;;;15.06;92.71;100261.53;5023800;28;20087;-78
2022/12/31 07:46:29;;;;;;;3.15;0.70;;;;;;;14.92;93.72;100268.53;5042498;28;20041;-78
2022/12/31 07:48:55;;;;;;;2.53;0.38;;;;;;;15.03;93.07;100277.56;5016888;28;20052;-78
2022/12/31 07:51:21;;;;;;;2.80;0.63;;;;;;;15.06;92.45;100279.81;5028995;28;20038;-76
2022/12/31 07:53:46;;;;;;;2.90;0.50;;;;;;;15.10;92.13;100275.78;5024837;28;20053;-77
2022/12/31 07:56:12;;;;;;;1.65;0.85;;;;;;;15.02;92.42;100289.84;5010961;28;20510;-77
2022/12/31 07:59:19;;;;;;;4.32;0.60;;;;;;;15.17;90.98;100287.84;5014597;28;20022;-77
2022/12/31 08:02:21;;;;;;;1.65;0.50;;;;;;;15.19;90.52;100288.47;4949113;28;20046;-78
2022/12/31 08:05:17;;;;;;;0.83;0.50;;;;;;;15.16;90.73;100288.88;5027854;28;20431;-78
2022/12/31 08:07:42;;;;;;;6.50;1.90;;;;;;;15.21;90.34;100274.41;5040579;28;20508;-79
2022/12/31 08:10:24;;;;;;;2.40;1.15;;;;;;;15.25;90.13;100293.91;5006926;28;20112;-77
2022/12/31 08:13:01;;;;;;;1.33;0.43;;;;;;;15.26;90.45;100319.03;4824015;28;20181;-77
2022/12/31 08:15:27;;;;;;;3.95;0.60;;;;;;;15.28;90.19;100309.97;4890132;28;20518;-76
2022/12/31 08:17:53;;;;;;;1.80;0.63;;;;;;;15.10;91.10;100296.69;5013734;28;20033;-77
2022/12/31 08:20:19;;;;;;;4.28;0.40;;;;;;;15.27;90.54;100299.72;5038299;28;20044;-76
2022/12/31 08:22:47;;;;;;;2.20;0.30;;;;;;;15.25;90.69;100310.38;4944886;28;20054;-76
2022/12/31 08:25:15;;;;;;;6.72;0.90;;;;;;;15.26;90.31;100311.19;4995495;28;20136;-77
2022/12/31 08:27:59;;;;;;;3.65;0.50;;;;;;;15.25;90.77;100297.31;5022393;23;20069;-72
2022/12/31 08:30:53;;;;;;;3.97;0.82;;;;;;;15.18;91.06;100304.31;5012644;28;20478;-72
2022/12/31 08:33:26;;;;;;;2.38;0.60;;;;;;;15.28;90.42;100303.97;5053401;28;20397;-73
2022/12/31 08:36:06;;;;;;;8.25;0.98;;;;;;;15.25;90.30;100310.38;5039338;28;20068;-73
2022/12/31 08:39:02;;;;;;;4.20;0.70;;;;;;;15.20;90.89;100318.00;5048038;28;20048;-72
2022/12/31 08:41:35;;;;;;;1.45;0.60;;;;;;;15.30;90.26;100328.88;5041514;28;20048;-72
2022/12/31 08:44:34;;;;;;;5.20;0.50;;;;;;;15.37;89.53;100329.69;5027115;28;20108;-72
2022/12/31 08:47:06;;;;;;;1.67;0.60;;;;;;;15.36;89.63;100343.75;4983300;28;20060;-73
2022/12/31 08:49:34;;;;;;;4.07;0.50;;;;;;;15.47;88.91;100349.41;5036794;28;20067;-72
2022/12/31 08:52:02;;;;;;;4.78;0.88;;;;;;;15.48;88.98;100336.13;5050966;28;20544;-73
2022/12/31 08:54:28;;;;;;;3.50;0.77;;;;;;;15.48;89.06;100348.38;5030045;28;20060;-72
2022/12/31 08:57:32;;;;;;;4.28;0.65;;;;;;;15.48;88.82;100361.44;5039652;28;20037;-73
2022/12/31 09:00:15;;;;;;;0.90;0.50;;;;;;;15.47;89.21;100367.69;5042542;28;20044;-72
2022/12/31 09:02:49;;;;;;;5.60;0.75;;;;;;;15.49;89.29;100370.91;5045152;28;20252;-73
2022/12/31 09:05:24;;;;;;;3.38;0.70;;;;;;;15.41;89.57;100382.34;5023806;28;20361;-73
2022/12/31 09:08:04;;;;;;;1.90;0.60;;;;;;;15.48;88.79;100384.94;5025374;28;20498;-72
2022/12/31 09:10:50;;;;;;;7.20;0.80;;;;;;;15.54;88.58;100390.19;5037304;28;20072;-73
2022/12/31 09:13:53;;;;;;;4.75;0.93;;;;;;;15.56;88.60;100409.09;5043719;28;20543;-73
2022/12/31 09:16:50;;;;;;;3.95;0.70;;;;;;;15.60;87.96;100401.69;5044127;28;20045;-69
2022/12/31 09:19:18;;;;;;;4.00;1.15;;;;;;;15.54;89.03;100418.16;5028644;28;20036;-72
2022/12/31 09:21:44;;;;;;;1.80;0.82;;;;;;;15.67;88.14;100414.72;5041973;28;20048;-72
2022/12/31 09:24:14;;;;;;;7.00;1.08;;;;;;;15.69;88.14;100447.53;5041900;28;20406;-71
2022/12/31 09:26:58;;;;;;;2.97;0.60;;;;;;;15.68;88.04;100437.25;5059283;28;20106;-72
2022/12/31 09:29:53;;;;;;;5.05;1.20;;;;;;;15.70;88.20;100441.28;5035441;28;20036;-74
2022/12/31 09:32:53;;;;;;;3.90;0.70;;;;;;;15.78;87.63;100450.78;5033809;28;20128;-73
2022/12/31 09:35:53;;;;;;;4.05;0.60;;;;;;;15.83;86.66;100442.34;5039096;28;20143;-71
2022/12/31 09:38:26;;;;;;;4.38;0.60;;;;;;;15.87;86.41;100457.44;5024915;28;20430;-72
2022/12/31 09:41:07;;;;;;;1.80;0.73;;;;;;;15.89;86.18;100459.84;5027233;28;20041;-72
2022/12/31 09:43:48;;;;;;;3.00;0.70;;;;;;;15.92;85.73;100462.88;5055827;28;20483;-73
2022/12/31 09:46:52;;;;;;;6.40;0.90;;;;;;;15.92;85.88;100451.63;5031599;28;20490;-72
2022/12/31 09:49:39;;;;;;;2.53;1.00;;;;;;;15.88;86.18;100479.13;5042390;28;20502;-72
2022/12/31 09:52:33;;;;;;;4.72;0.77;;;;;;;15.96;85.67;100473.75;5025194;28;20517;-73
2022/12/31 09:55:34;;;;;;;2.30;0.65;;;;;;;15.84;86.34;100491.00;5045392;28;20029;-73
2022/12/31 09:58:03;;;;;;;5.57;0.95;;;;;;;15.90;86.00;100504.09;5056031;28;20032;-73
2022/12/31 10:00:39;;;;;;;2.72;0.65;;;;;;;16.06;85.05;100489.84;5011109;28;20084;-72
2022/12/31 10:03:29;;;;;;;5.65;0.60;;;;;;;16.13;84.27;100485.41;5036602;28;20033;-72
2022/12/31 10:06:15;;;;;;;6.45;0.40;;;;;;;16.10;84.37;100488.44;5029625;28;20037;-73
2022/12/31 10:09:10;;;;;;;6.03;0.82;;;;;;;16.19;83.58;100493.47;5046667;28;20060;-72
2022/12/31 10:12:03;;;;;;;6.07;0.75;;;;;;;16.17;83.39;100514.59;5038937;28;20122;-73
2022/12/31 10:14:54;;;;;;;1.40;0.60;;;;;;;16.22;83.38;100516.59;5048340;28;20036;-73
2022/12/31 10:17:49;;;;;;;4.68;1.42;;;;;;;16.13;84.06;100508.16;5037255;28;20065;-73
2022/12/31 10:20:50;;;;;;;3.95;0.70;;;;;;;16.24;83.69;100520.66;5029535;28;20557;-73
2022/12/31 10:23:38;;;;;;;4.60;0.82;;;;;;;16.25;83.44;100519.63;5048609;28;20414;-73
2022/12/31 10:26:09;;;;;;;4.55;0.80;;;;;;;16.17;83.63;100516.41;5037596;28;20996;-73
2022/12/31 10:28:47;;;;;;;4.32;0.77;;;;;;;16.13;83.82;100522.03;5045251;28;20041;-73
2022/12/31 10:31:20;;;;;;;5.65;0.60;;;;;;;16.15;84.11;100529.69;5045057;28;20418;-73
2022/12/31 10:34:11;;;;;;;5.22;1.10;;;;;;;16.22;83.65;100521.84;5047257;28;20078;-73
2022/12/31 10:37:04;;;;;;;8.80;0.82;;;;;;;16.21;83.31;100523.66;5061292;28;20403;-72
2022/12/31 10:39:46;;;;;;;8.52;0.95;;;;;;;16.23;83.47;100523.47;5061531;28;20032;-72
2022/12/31 10:42:12;;;;;;;2.35;0.60;;;;;;;16.27;83.34;100509.75;5043081;28;20135;-73
2022/12/31 10:45:02;;;;;;;5.15;0.70;;;;;;;16.35;82.74;100501.75;5046674;27;20052;-73
2022/12/31 10:47:40;;;;;;;11.25;1.23;;;;;;;16.31;83.01;100500.53;5047859;28;20032;-73
2022/12/31 10:50:45;;;;;;;6.75;1.88;;;;;;;16.40;82.26;100489.84;5025406;28;21746;-73
2022/12/31 10:53:26;;;;;;;6.05;1.05;;;;;;;16.45;82.05;100495.31;5040137;28;20513;-73
2022/12/31 10:56:14;;;;;;;4.28;0.68;;;;;;;16.42;82.35;100498.31;5039699;28;20114;-73
2022/12/31 10:59:25;;;;;;;6.32;1.08;;;;;;;16.49;81.80;100491.25;5043165;28;20140;-73
2022/12/31 11:02:17;;;;;;;5.18;0.63;;;;;;;16.52;81.29;100490.88;5021607;28;20048;-71
2022/12/31 11:05:20;;;;;;;4.95;0.82;;;;;;;16.45;81.87;100492.69;5045608;28;20144;-73
2022/12/31 11:08:10;;;;;;;8.00;0.90;;;;;;;16.45;82.12;100511.78;5045707;28;20036;-72
2022/12/31 11:11:12;;;;;;;4.82;0.90;;;;;;;16.47;81.93;100501.94;5028775;28;21102;-73
2022/12/31 11:14:14;;;;;;;4.13;0.93;;;;;;;16.50;81.68;100500.72;5044369;28;20036;-73
2022/12/31 11:17:05;;;;;;;6.22;0.82;;;;;;;16.44;82.51;100502.31;5034654;28;20055;-73
2022/12/31 11:19:36;;;;;;;6.38;0.90;;;;;;;16.51;82.34;100497.91;5062903;28;20102;-72
2022/12/31 11:22:36;;;;;;;7.53;0.98;;;;;;;16.54;81.88;100494.88;5043672;28;20028;-73
2022/12/31 11:25:04;;;;;;;6.43;0.98;;;;;;;16.52;81.91;100514.44;5041667;28;20033;-72
2022/12/31 11:27:45;;;;;;;7.38;1.15;;;;;;;16.51;81.68;100497.91;5046556;28;20112;-73
2022/12/31 11:30:47;;;;;;;5.40;0.90;;;;;;;16.60;80.98;100500.31;5043127;28;20124;-73
2022/12/31 11:33:39;;;;;;;5.65;0.98;;;;;;;16.53;81.60;100508.97;5041470;28;20025;-72
2022/12/31 11:36:36;;;;;;;7.10;0.90;;;;;;;16.49;80.63;100504.34;4981944;28;20056;-72
2022/12/31 11:39:24;;;;;;;4.45;1.10;;;;;;;16.42;80.90;100520.03;5043972;28;20037;-73
2022/12/31 11:41:59;;;;;;;4.20;0.65;;;;;;;16.44;80.97;100512.00;5044941;28;20048;-73
2022/12/31 11:44:46;;;;;;;3.72;1.38;;;;;;;16.47;80.86;100514.22;5039055;28;20036;-73
2022/12/31 11:47:23;;;;;;;3.08;1.23;;;;;;;16.49;80.74;100496.50;5049033;28;20074;-72
2022/12/31 11:50:20;;;;;;;5.35;0.77;;;;;;;16.47;80.31;100509.78;5045674;28;20091;-73
2022/12/31 11:52:45;;;;;;;3.42;0.90;;;;;;;16.42;80.67;100499.09;5043159;28;20043;-73
2022/12/31 11:55:26;;;;;;;5.60;1.33;;;;;;;16.43;80.23;100505.97;5025163;28;20140;-73
2022/12/31 11:57:52;;;;;;;2.65;0.75;;;;;;;16.47;80.04;100499.31;5039443;28;20037;-73
2022/12/31 12:00:19;;;;;;;3.70;0.88;;;;;;;16.42;80.31;100514.81;5043454;28;20495;-72